createdAt,value
2023-03-19T00:02:17.070Z,99322.88
2023-03-19T00:04:44.396Z,99318.78
2023-03-19T00:07:11.509Z,99320.81
2023-03-19T00:09:38.264Z,99329.63
2023-03-19T00:12:05.495Z,99331.84
2023-03-19T00:14:32.256Z,99321.56
2023-03-19T00:16:58.889Z,99320.72
2023-03-19T00:19:25.972Z,99317.19
2023-03-19T00:21:53.093Z,99321.75
2023-03-19T00:24:20.821Z,99329.41
2023-03-19T00:26:48.077Z,99325.06
2023-03-19T00:29:15.012Z,99336.31
2023-03-19T00:31:41.925Z,99340.28
2023-03-19T00:34:10.003Z,99345.41
2023-03-19T00:36:37.573Z,99336.75
2023-03-19T00:39:05.094Z,99341.56
2023-03-19T00:41:32.501Z,99341.72
2023-03-19T00:43:59.591Z,99342.09
2023-03-19T00:46:26.631Z,99337.91
2023-03-19T00:48:55.793Z,99331.69
2023-03-19T00:51:23.912Z,99329.22
2023-03-19T00:53:51.730Z,99335.38
2023-03-19T00:56:19.211Z,99323.81
2023-03-19T00:58:46.415Z,99337.41
2023-03-19T01:01:15.867Z,99333.69
2023-03-19T01:03:43.140Z,99334.72
2023-03-19T01:06:09.845Z,99348.13
2023-03-19T01:08:36.796Z,99341.59
2023-03-19T01:11:14.415Z,99339.06
2023-03-19T01:13:42.521Z,99345.63
2023-03-19T01:16:10.082Z,99344.19
2023-03-19T01:18:37.167Z,99352.63
2023-03-19T01:21:04.176Z,99348.75
2023-03-19T01:23:32.015Z,99352.53
2023-03-19T01:25:58.768Z,99345.81
2023-03-19T01:28:25.536Z,99353.69
2023-03-19T01:30:52.548Z,99358.69
2023-03-19T01:33:20.786Z,99357.00
2023-03-19T01:35:53.798Z,99366.47
2023-03-19T01:38:20.508Z,99358.13
2023-03-19T01:40:48.755Z,99355.19
2023-03-19T01:43:18.744Z,99351.94
2023-03-19T01:45:48.060Z,99348.31
2023-03-19T01:48:34.300Z,99356.59
2023-03-19T01:51:01.668Z,99353.28
2023-03-19T01:53:33.191Z,99357.69
2023-03-19T01:56:04.265Z,99362.13
2023-03-19T01:58:31.460Z,99366.09
2023-03-19T02:00:58.609Z,99367.50
2023-03-19T02:03:27.072Z,99355.81
2023-03-19T02:05:56.555Z,99365.47
2023-03-19T02:08:24.904Z,99368.69
2023-03-19T02:10:56.096Z,99368.50
2023-03-19T02:13:23.756Z,99359.34
2023-03-19T02:15:51.943Z,99356.59
2023-03-19T02:18:19.129Z,99349.50
2023-03-19T02:20:51.309Z,99349.72
2023-03-19T02:23:27.686Z,99355.31
2023-03-19T02:26:04.462Z,99354.94
2023-03-19T02:28:33.667Z,99352.47
2023-03-19T02:31:00.722Z,99355.75
2023-03-19T02:33:27.892Z,99357.78
2023-03-19T02:35:56.813Z,99356.78
2023-03-19T02:38:25.930Z,99361.50
2023-03-19T02:41:04.795Z,99357.41
2023-03-19T02:43:34.446Z,99362.34
2023-03-19T02:48:29.152Z,99362.25
2023-03-19T02:50:56.308Z,99363.63
2023-03-19T02:53:23.584Z,99357.78
2023-03-19T02:55:50.816Z,99362.78
2023-03-19T02:58:17.890Z,99362.84
2023-03-19T03:00:45.528Z,99363.72
2023-03-19T03:03:12.804Z,99368.19
2023-03-19T03:05:39.533Z,99382.22
2023-03-19T03:08:06.308Z,99376.47
2023-03-19T03:10:34.078Z,99381.09
2023-03-19T03:13:01.852Z,99373.69
2023-03-19T03:15:28.720Z,99374.44
2023-03-19T03:17:56.961Z,99372.84
2023-03-19T03:20:24.982Z,99376.34
2023-03-19T03:22:52.127Z,99367.31
2023-03-19T03:25:18.876Z,99363.16
2023-03-19T03:27:45.803Z,99372.00
2023-03-19T03:30:12.934Z,99371.19
2023-03-19T03:32:40.424Z,99367.09
2023-03-19T03:35:08.560Z,99371.19
2023-03-19T03:37:37.027Z,99385.44
2023-03-19T03:40:08.463Z,99388.34
2023-03-19T03:42:37.545Z,99398.19
2023-03-19T03:45:05.246Z,99403.06
2023-03-19T03:47:32.469Z,99400.09
2023-03-19T03:49:59.425Z,99404.03
2023-03-19T03:52:26.598Z,99413.09
2023-03-19T03:54:53.243Z,99407.84
2023-03-19T03:57:19.892Z,99402.50
2023-03-19T03:59:46.657Z,99402.09
2023-03-19T04:02:13.395Z,99399.00
2023-03-19T04:04:40.198Z,99402.19
2023-03-19T04:07:06.956Z,99414.13
2023-03-19T04:09:33.779Z,99406.41
2023-03-19T04:12:01.160Z,99412.81
2023-03-19T04:14:28.438Z,99407.84
2023-03-19T04:16:55.135Z,99409.88
2023-03-19T04:19:21.908Z,99412.00
2023-03-19T04:21:48.654Z,99413.66
2023-03-19T04:24:15.321Z,99409.97
2023-03-19T04:26:42.528Z,99404.59
2023-03-19T04:29:09.724Z,99402.09
2023-03-19T04:31:36.524Z,99402.75
2023-03-19T04:36:37.710Z,99396.19
2023-03-19T04:39:05.201Z,99391.03
2023-03-19T04:41:32.709Z,99407.47
2023-03-19T04:43:59.436Z,99414.34
2023-03-19T04:46:26.191Z,99422.84
2023-03-19T04:48:52.942Z,99420.97
2023-03-19T04:51:21.599Z,99419.91
2023-03-19T04:53:49.598Z,99429.22
2023-03-19T04:56:16.747Z,99428.81
2023-03-19T04:58:44.106Z,99433.81
2023-03-19T05:01:11.353Z,99441.84
2023-03-19T05:03:38.324Z,99442.75
2023-03-19T05:06:07.264Z,99443.13
2023-03-19T05:08:34.081Z,99455.63
2023-03-19T05:11:00.940Z,99451.03
2023-03-19T05:13:27.664Z,99456.09
2023-03-19T05:15:55.716Z,99460.47
2023-03-19T05:18:23.156Z,99463.94
2023-03-19T05:20:50.229Z,99469.28
2023-03-19T05:23:18.131Z,99466.81
2023-03-19T05:25:45.171Z,99466.81
2023-03-19T05:28:12.477Z,99482.75
2023-03-19T05:30:41.180Z,99476.38
2023-03-19T05:33:07.937Z,99485.28
2023-03-19T05:35:36.104Z,99488.34
2023-03-19T05:40:29.369Z,99488.84
2023-03-19T05:42:56.038Z,99486.44
2023-03-19T05:45:22.704Z,99486.06
2023-03-19T05:47:50.324Z,99481.59
2023-03-19T05:50:18.545Z,99481.19
2023-03-19T05:52:45.469Z,99477.06
2023-03-19T05:55:12.420Z,99488.03
2023-03-19T05:57:42.640Z,99488.28
2023-03-19T06:00:10.114Z,99487.88
2023-03-19T06:02:37.341Z,99492.47
2023-03-19T06:05:05.234Z,99491.44
2023-03-19T06:07:32.245Z,99480.47
2023-03-19T06:09:59.051Z,99486.72
2023-03-19T06:12:25.767Z,99493.78
2023-03-19T06:14:52.394Z,99499.56
2023-03-19T06:17:23.641Z,99504.50
2023-03-19T06:19:50.476Z,99505.38
2023-03-19T06:22:18.325Z,99499.63
2023-03-19T06:24:44.986Z,99498.72
2023-03-19T06:27:11.820Z,99506.38
2023-03-19T06:29:38.441Z,99510.13
2023-03-19T06:32:05.488Z,99508.72
2023-03-19T06:34:32.207Z,99513.06
2023-03-19T06:36:58.892Z,99513.47
2023-03-19T06:39:26.239Z,99515.94
2023-03-19T06:41:53.157Z,99528.78
2023-03-19T06:44:20.468Z,99530.22
2023-03-19T06:46:47.622Z,99532.13
2023-03-19T06:49:14.553Z,99528.41
2023-03-19T06:51:41.731Z,99536.69
2023-03-19T06:54:08.826Z,99539.38
2023-03-19T06:56:36.299Z,99544.53
2023-03-19T06:59:04.616Z,99544.94
2023-03-19T07:01:31.688Z,99549.09
2023-03-19T07:03:58.490Z,99545.41
2023-03-19T07:06:25.213Z,99547.06
2023-03-19T07:08:51.972Z,99546.03
2023-03-19T07:11:19.001Z,99547.22
2023-03-19T07:13:48.887Z,99547.03
2023-03-19T07:16:15.713Z,99553.66
2023-03-19T07:18:42.666Z,99553.66
2023-03-19T07:21:09.300Z,99555.53
2023-03-19T07:23:36.144Z,99558.84
2023-03-19T07:26:04.359Z,99553.47
2023-03-19T07:28:31.918Z,99566.88
2023-03-19T07:30:58.681Z,99563.59
2023-03-19T07:33:28.466Z,99564.59
2023-03-19T07:35:55.182Z,99569.34
2023-03-19T07:38:21.831Z,99567.69
2023-03-19T07:41:01.476Z,99562.72
2023-03-19T07:43:28.753Z,99567.88
2023-03-19T07:45:55.558Z,99563.69
2023-03-19T07:48:22.321Z,99570.34
2023-03-19T07:50:51.857Z,99566.00
2023-03-19T07:53:19.515Z,99562.69
2023-03-19T07:55:47.536Z,99571.78
2023-03-19T07:58:14.196Z,99568.88
2023-03-19T08:00:41.265Z,99566.81
2023-03-19T08:03:08.192Z,99575.94
2023-03-19T08:05:34.899Z,99576.88
2023-03-19T08:08:01.959Z,99576.53
2023-03-19T08:10:28.770Z,99583.31
2023-03-19T08:12:55.448Z,99579.44
2023-03-19T08:15:23.668Z,99586.41
2023-03-19T08:17:57.869Z,99584.56
2023-03-19T08:20:24.638Z,99584.03
2023-03-19T08:22:51.488Z,99580.03
2023-03-19T08:25:19.354Z,99578.75
2023-03-19T08:27:46.133Z,99591.41
2023-03-19T08:30:13.228Z,99590.75
2023-03-19T08:32:40.059Z,99596.97
2023-03-19T08:35:08.488Z,99600.09
2023-03-19T08:37:35.450Z,99607.16
2023-03-19T08:42:29.296Z,99605.59
2023-03-19T08:44:56.288Z,99597.72
2023-03-19T08:47:24.597Z,99604.97
2023-03-19T08:49:52.390Z,99598.50
2023-03-19T08:52:20.041Z,99602.66
2023-03-19T08:54:46.727Z,99603.81
2023-03-19T08:57:13.475Z,99602.16
2023-03-19T08:59:40.301Z,99600.34
2023-03-19T09:02:10.658Z,99606.13
2023-03-19T09:04:39.222Z,99610.72
2023-03-19T09:07:06.704Z,99612.28
2023-03-19T09:09:33.448Z,99603.03
2023-03-19T09:12:00.248Z,99602.84
2023-03-19T09:14:31.156Z,99612.06
2023-03-19T09:16:57.923Z,99606.41
2023-03-19T09:19:24.838Z,99612.41
2023-03-19T09:21:51.818Z,99611.41
2023-03-19T09:24:21.627Z,99608.50
2023-03-19T09:26:49.688Z,99614.25
2023-03-19T09:29:16.948Z,99604.66
2023-03-19T09:31:45.022Z,99609.69
2023-03-19T09:34:11.970Z,99615.09
2023-03-19T09:36:38.620Z,99618.59
2023-03-19T09:39:09.266Z,99610.28
2023-03-19T09:42:05.716Z,99614.78
2023-03-19T09:44:41.426Z,99608.50
2023-03-19T09:47:20.276Z,99614.66
2023-03-19T09:49:51.591Z,99608.41
2023-03-19T09:52:47.270Z,99611.34
2023-03-19T09:55:35.350Z,99610.69
2023-03-19T09:58:04.851Z,99601.16
2023-03-19T10:00:37.222Z,99602.25
2023-03-19T10:03:31.169Z,99603.66
2023-03-19T10:06:04.474Z,99601.22
2023-03-19T10:08:35.042Z,99594.00
2023-03-19T10:11:03.488Z,99598.72
2023-03-19T10:13:44.796Z,99607.09
2023-03-19T10:16:20.281Z,99594.59
2023-03-19T10:18:51.275Z,99597.09
2023-03-19T10:21:37.600Z,99600.84
2023-03-19T10:24:21.954Z,99595.41
2023-03-19T10:26:56.903Z,99598.69
2023-03-19T10:29:24.808Z,99594.81
2023-03-19T10:32:00.903Z,99597.19
2023-03-19T10:34:38.027Z,99595.78
2023-03-19T10:37:14.059Z,99591.09
2023-03-19T10:39:44.528Z,99594.69
2023-03-19T10:42:42.390Z,99590.44
2023-03-19T10:45:30.352Z,99584.56
2023-03-19T10:47:58.407Z,99584.81
2023-03-19T10:50:38.596Z,99585.25
2023-03-19T10:53:28.399Z,99577.53
2023-03-19T10:55:56.854Z,99577.81
2023-03-19T10:58:28.471Z,99573.25
2023-03-19T11:01:03.579Z,99571.50
2023-03-19T11:03:35.492Z,99564.78
2023-03-19T11:06:04.524Z,99564.03
2023-03-19T11:08:36.544Z,99563.97
2023-03-19T11:11:04.459Z,99556.22
2023-03-19T11:13:36.339Z,99558.63
2023-03-19T11:16:04.436Z,99556.28
2023-03-19T11:18:37.578Z,99558.69
2023-03-19T11:21:22.094Z,99555.63
2023-03-19T11:23:58.236Z,99547.69
2023-03-19T11:26:31.552Z,99553.72
2023-03-19T11:31:37.747Z,99544.91
2023-03-19T11:34:28.805Z,99534.44
2023-03-19T11:37:04.517Z,99535.34
2023-03-19T11:40:05.017Z,99531.06
2023-03-19T11:42:43.347Z,99523.03
2023-03-19T11:45:33.908Z,99522.63
2023-03-19T11:48:04.569Z,99525.28
2023-03-19T11:51:04.461Z,99517.63
2023-03-19T11:53:38.497Z,99516.81
2023-03-19T11:56:23.290Z,99507.06
2023-03-19T11:58:59.124Z,99506.16
2023-03-19T12:01:49.328Z,99506.66
2023-03-19T12:05:00.830Z,99494.53
2023-03-19T12:07:40.947Z,99497.47
2023-03-19T12:10:28.943Z,99489.00
2023-03-19T12:13:04.587Z,99499.16
2023-03-19T12:15:34.602Z,99505.03
2023-03-19T12:18:08.050Z,99497.44
2023-03-19T12:20:46.954Z,99487.25
2023-03-19T12:23:39.324Z,99478.72
2023-03-19T12:26:16.165Z,99478.91
2023-03-19T12:29:05.021Z,99480.88
2023-03-19T12:31:41.557Z,99479.03
2023-03-19T12:34:30.169Z,99481.13
2023-03-19T12:37:04.855Z,99472.03
2023-03-19T12:39:37.480Z,99473.91
2023-03-19T12:42:07.804Z,99469.00
2023-03-19T12:44:43.710Z,99472.13
2023-03-19T12:47:22.849Z,99470.13
2023-03-19T12:50:00.305Z,99466.59
2023-03-19T12:52:41.622Z,99463.91
2023-03-19T12:55:23.387Z,99465.56
2023-03-19T12:58:04.669Z,99470.66
2023-03-19T13:01:01.442Z,99456.88
2023-03-19T13:03:37.820Z,99461.72
2023-03-19T13:06:08.840Z,99454.03
2023-03-19T13:08:51.532Z,99455.19
2023-03-19T13:11:34.806Z,99463.19
2023-03-19T13:14:04.586Z,99451.16
2023-03-19T13:16:59.174Z,99454.13
2023-03-19T13:19:41.560Z,99461.03
2023-03-19T13:22:14.028Z,99454.72
2023-03-19T13:24:44.749Z,99454.66
2023-03-19T13:27:22.392Z,99452.25
2023-03-19T13:30:01.566Z,99447.84
2023-03-19T13:32:43.227Z,99443.06
2023-03-19T13:35:39.915Z,99445.91
2023-03-19T13:38:24.592Z,99445.25
2023-03-19T13:40:57.246Z,99439.44
2023-03-19T13:43:43.204Z,99439.50
2023-03-19T13:46:12.025Z,99429.59
2023-03-19T13:48:45.416Z,99431.88
2023-03-19T13:51:21.986Z,99427.78
2023-03-19T13:53:56.533Z,99433.53
2023-03-19T13:56:30.330Z,99433.25
2023-03-19T13:59:03.562Z,99426.97
2023-03-19T14:01:30.218Z,99425.34
2023-03-19T14:06:39.154Z,99423.66
2023-03-19T14:09:28.839Z,99417.59
2023-03-19T14:11:56.462Z,99417.41
2023-03-19T14:14:25.188Z,99412.47
2023-03-19T14:16:57.025Z,99417.16
2023-03-19T14:19:24.823Z,99416.03
2023-03-19T14:24:55.902Z,99411.28
2023-03-19T14:27:33.062Z,99410.38
2023-03-19T14:30:04.713Z,99407.03
2023-03-19T14:32:41.021Z,99415.97
2023-03-19T14:35:13.252Z,99406.38
2023-03-19T14:37:52.345Z,99403.56
2023-03-19T14:40:51.941Z,99408.19
2023-03-19T14:43:35.467Z,99413.69
2023-03-19T14:46:04.654Z,99412.84
2023-03-19T14:49:04.992Z,99412.78
2023-03-19T14:51:43.978Z,99400.34
2023-03-19T14:54:55.990Z,99403.31
2023-03-19T14:57:28.494Z,99416.03
2023-03-19T14:59:56.023Z,99415.09
2023-03-19T15:02:49.064Z,99411.72
2023-03-19T15:05:33.314Z,99408.84
2023-03-19T15:08:04.674Z,99408.59
2023-03-19T15:10:42.163Z,99409.69
2023-03-19T15:13:27.577Z,99415.34
2023-03-19T15:16:03.958Z,99401.16
2023-03-19T15:18:38.668Z,99407.16
2023-03-19T15:21:06.513Z,99414.81
2023-03-19T15:23:33.327Z,99429.22
2023-03-19T15:28:44.665Z,99450.75
2023-03-19T15:31:31.146Z,99443.97
2023-03-19T15:34:00.299Z,99451.63
2023-03-19T15:36:34.371Z,99459.09
2023-03-19T15:39:07.861Z,99460.94
2023-03-19T15:41:40.982Z,99465.69
2023-03-19T15:44:15.915Z,99476.41
2023-03-19T15:46:45.628Z,99455.88
2023-03-19T15:49:31.000Z,99465.97
2023-03-19T15:54:32.626Z,99460.91
2023-03-19T15:56:59.508Z,99455.00
2023-03-19T15:59:33.656Z,99469.22
2023-03-19T16:04:30.284Z,99475.31
2023-03-19T16:06:59.178Z,99476.00
2023-03-19T16:09:34.423Z,99470.16
2023-03-19T16:12:01.761Z,99482.47
2023-03-19T16:14:40.386Z,99476.81
2023-03-19T16:17:16.107Z,99473.81
2023-03-19T16:19:56.730Z,99474.50
2023-03-19T16:22:25.698Z,99480.69
2023-03-19T16:24:53.943Z,99479.94
2023-03-19T16:27:32.080Z,99485.69
2023-03-19T16:30:00.733Z,99483.69
2023-03-19T16:32:29.901Z,99490.00
2023-03-19T16:35:04.721Z,99491.19
2023-03-19T16:37:34.615Z,99504.81
2023-03-19T16:40:04.829Z,99497.06
2023-03-19T16:42:34.164Z,99490.84
2023-03-19T16:45:04.707Z,99494.22
2023-03-19T16:47:31.427Z,99499.81
2023-03-19T16:49:58.046Z,99501.75
2023-03-19T16:52:25.346Z,99501.53
2023-03-19T16:54:52.428Z,99504.78
2023-03-19T16:57:19.836Z,99502.97
2023-03-19T16:59:47.544Z,99508.06
2023-03-19T17:02:16.220Z,99522.16
2023-03-19T17:04:43.474Z,99517.00
2023-03-19T17:07:11.263Z,99526.22
2023-03-19T17:09:39.421Z,99530.41
2023-03-19T17:12:08.657Z,99536.91
2023-03-19T17:14:35.788Z,99534.66
2023-03-19T17:19:36.120Z,99542.31
2023-03-19T17:24:32.726Z,99551.84
2023-03-19T17:29:30.665Z,99560.44
2023-03-19T17:32:02.115Z,99563.47
2023-03-19T17:34:33.392Z,99567.75
2023-03-19T17:37:07.695Z,99560.38
2023-03-19T17:39:34.419Z,99561.91
2023-03-19T17:42:01.222Z,99563.91
2023-03-19T17:44:28.335Z,99576.88
2023-03-19T17:46:56.288Z,99577.56
2023-03-19T17:49:32.922Z,99579.50
2023-03-19T17:52:00.449Z,99580.38
2023-03-19T17:54:28.077Z,99589.53
2023-03-19T17:56:55.939Z,99594.84
2023-03-19T17:59:24.030Z,99593.41
2023-03-19T18:01:52.278Z,99604.69
2023-03-19T18:04:21.406Z,99609.47
2023-03-19T18:06:56.075Z,99609.75
2023-03-19T18:09:32.966Z,99609.84
2023-03-19T18:12:00.643Z,99615.06
2023-03-19T18:14:27.699Z,99623.22
2023-03-19T18:16:55.128Z,99622.84
2023-03-19T18:19:35.646Z,99627.44
2023-03-19T18:22:04.838Z,99632.03
2023-03-19T18:24:31.542Z,99637.47
2023-03-19T18:26:58.193Z,99636.84
2023-03-19T18:29:24.972Z,99639.13
2023-03-19T18:31:52.376Z,99643.69
2023-03-19T18:34:19.714Z,99641.22
2023-03-19T18:36:46.473Z,99643.31
2023-03-19T18:39:15.670Z,99659.53
2023-03-19T18:41:42.877Z,99643.81
2023-03-19T18:44:10.068Z,99656.03
2023-03-19T18:46:39.311Z,99659.97
2023-03-19T18:49:21.915Z,99656.66
2023-03-19T18:52:01.757Z,99660.41
2023-03-19T18:54:31.655Z,99659.19
2023-03-19T18:57:00.977Z,99662.06
2023-03-19T18:59:33.567Z,99659.63
2023-03-19T19:02:03.843Z,99673.06
2023-03-19T19:04:31.461Z,99677.44
2023-03-19T19:06:58.386Z,99678.22
2023-03-19T19:09:25.187Z,99683.59
2023-03-19T19:11:54.460Z,99685.69
2023-03-19T19:14:24.305Z,99694.81
2023-03-19T19:16:53.233Z,99702.06
2023-03-19T19:19:23.344Z,99703.91
2023-03-19T19:21:51.295Z,99712.19
2023-03-19T19:24:21.878Z,99704.34
2023-03-19T19:26:54.211Z,99710.53
2023-03-19T19:29:28.451Z,99715.50
2023-03-19T19:31:55.827Z,99712.41
2023-03-19T19:34:23.326Z,99720.88
2023-03-19T19:36:51.182Z,99723.78
2023-03-19T19:39:19.276Z,99720.88
2023-03-19T19:41:48.479Z,99720.03
2023-03-19T19:44:23.007Z,99721.28
2023-03-19T19:46:54.088Z,99723.56
2023-03-19T19:49:21.885Z,99715.91
2023-03-19T19:51:48.979Z,99726.69
2023-03-19T19:54:16.259Z,99728.75
2023-03-19T19:56:46.239Z,99733.31
2023-03-19T19:59:15.499Z,99727.91
2023-03-19T20:01:42.307Z,99736.19
2023-03-19T20:04:14.995Z,99727.50
2023-03-19T20:06:42.016Z,99727.47
2023-03-19T20:09:12.498Z,99729.56
2023-03-19T20:11:39.366Z,99723.31
2023-03-19T20:14:06.125Z,99721.66
2023-03-19T20:16:33.006Z,99735.56
2023-03-19T20:18:59.876Z,99734.06
2023-03-19T20:21:26.786Z,99737.53
2023-03-19T20:23:55.639Z,99740.63
2023-03-19T20:26:25.224Z,99741.66
2023-03-19T20:28:52.385Z,99747.63
2023-03-19T20:31:29.643Z,99744.28
2023-03-19T20:33:57.701Z,99740.13
2023-03-19T20:36:24.952Z,99748.78
2023-03-19T20:38:52.724Z,99747.16
2023-03-19T20:41:22.424Z,99747.00
2023-03-19T20:43:50.673Z,99754.69
2023-03-19T20:46:20.660Z,99753.81
2023-03-19T20:48:48.119Z,99771.53
2023-03-19T20:51:21.778Z,99768.03
2023-03-19T20:53:49.948Z,99776.09
2023-03-19T20:56:18.938Z,99773.25
2023-03-19T20:58:46.178Z,99764.56
2023-03-19T21:01:15.996Z,99777.13
2023-03-19T21:03:42.706Z,99776.09
2023-03-19T21:06:17.801Z,99779.59
2023-03-19T21:08:48.237Z,99773.56
2023-03-19T21:11:22.808Z,99780.16
2023-03-19T21:13:52.827Z,99780.56
2023-03-19T21:16:25.909Z,99780.94
2023-03-19T21:18:54.098Z,99773.44
2023-03-19T21:21:31.534Z,99776.69
2023-03-19T21:24:05.253Z,99777.97
2023-03-19T21:26:37.536Z,99771.94
2023-03-19T21:29:08.696Z,99770.47
2023-03-19T21:31:35.829Z,99777.06
2023-03-19T21:36:29.269Z,99776.00
2023-03-19T21:38:56.485Z,99774.84
2023-03-19T21:41:28.596Z,99784.38
2023-03-19T21:43:57.907Z,99784.75
2023-03-19T21:46:27.890Z,99785.78
2023-03-19T21:48:56.635Z,99790.31
2023-03-19T21:51:25.469Z,99787.22
2023-03-19T21:53:53.070Z,99784.75
2023-03-19T21:56:33.550Z,99788.97
2023-03-19T21:59:05.034Z,99793.53
2023-03-19T22:01:32.267Z,99784.88
2023-03-19T22:03:58.976Z,99800.88
2023-03-19T22:06:25.824Z,99797.81
2023-03-19T22:08:54.324Z,99807.53
2023-03-19T22:11:26.986Z,99810.00
2023-03-19T22:13:55.659Z,99798.13
2023-03-19T22:16:24.846Z,99803.47
2023-03-19T22:18:52.870Z,99805.59
2023-03-19T22:21:22.105Z,99808.53
2023-03-19T22:23:52.214Z,99810.72
2023-03-19T22:26:39.846Z,99803.88
2023-03-19T22:29:13.361Z,99809.69
2023-03-19T22:31:41.178Z,99801.78
2023-03-19T22:34:14.989Z,99817.31
2023-03-19T22:36:41.662Z,99810.84
2023-03-19T22:39:09.285Z,99812.50
2023-03-19T22:41:37.977Z,99809.56
2023-03-19T22:44:08.252Z,99813.00
2023-03-19T22:46:36.045Z,99809.75
2023-03-19T22:49:05.054Z,99818.63
2023-03-19T22:51:32.302Z,99808.47
2023-03-19T22:53:58.996Z,99802.59
2023-03-19T22:56:29.436Z,99813.88
2023-03-19T22:58:56.823Z,99809.72
2023-03-19T23:01:24.234Z,99806.78
2023-03-19T23:03:51.182Z,99810.75
2023-03-19T23:06:29.764Z,99810.38
2023-03-19T23:08:57.554Z,99810.38
2023-03-19T23:11:24.825Z,99812.41
2023-03-19T23:13:51.686Z,99817.16
2023-03-19T23:16:23.797Z,99814.00
2023-03-19T23:18:52.703Z,99809.88
2023-03-19T23:21:20.178Z,99813.19
2023-03-19T23:23:47.166Z,99810.59
2023-03-19T23:26:29.886Z,99809.56
2023-03-19T23:29:02.240Z,99804.41
2023-03-19T23:31:29.451Z,99807.38
2023-03-19T23:33:56.279Z,99807.19
2023-03-19T23:36:22.936Z,99804.09
2023-03-19T23:38:49.650Z,99802.72
2023-03-19T23:41:25.166Z,99812.84
2023-03-19T23:43:56.032Z,99803.91
2023-03-19T23:46:26.048Z,99802.44
2023-03-19T23:48:52.781Z,99803.72
2023-03-19T23:51:19.496Z,99800.44
2023-03-19T23:53:46.503Z,99802.28
2023-03-19T23:56:13.229Z,99808.28
2023-03-19T23:58:45.517Z,99806.53
